Weather reports worldwide

Advertisment
Chamonix, France (7469): temperature & dewpoint: 17.01.2019 03:00:00 - 23.01.2019 03:00:00 (CET)Chamonix, France (7469): wind speed & gusts: 17.01.2019 03:00:00 - 23.01.2019 03:00:00 (CET)Chamonix, France (7469): wind direction: 17.01.2019 03:00:00 - 23.01.2019 03:00:00 (CET)Chamonix, France (7469): precipitation: 17.01.2019 03:00:00 - 23.01.2019 03:00:00 (CET)
Date & Time tt [°C] td [°C] ff [km/h] ff [kn] fx [km/h] fx [kn] dd rr [mm]
23.01.2019 03:00:00 - - - - - - - -
23.01.2019 02:00:00 -10,7 -11,9 2 1 5 3 NNE 0,0
23.01.2019 01:00:00 -11,6 -12,9 0 0 2 1 N -
23.01.2019 00:00:00 -11,3 -12,6 0 0 5 3 N 0,0
22.01.2019 23:00:00 -11,3 -12,5 0 0 4 2 N 0,0
22.01.2019 22:00:00 -11,2 -12,4 0 0 8 4 N 0,0
22.01.2019 21:00:00 -10,9 -11,9 0 0 8 4 N 0,0
22.01.2019 20:00:00 -10,5 -11,7 0 0 4 2 N 0,0
22.01.2019 19:00:00 -9,1 -10,6 0 0 5 3 N -
22.01.2019 18:00:00 -7,1 -8,6 2 1 5 3 ESE 0,0
22.01.2019 17:00:00 -4,5 -7,9 2 1 4 2 NW 0,0
22.01.2019 16:00:00 -1,9 -6,3 0 0 5 3 N 0,0
22.01.2019 15:00:00 -0,8 -9,9 2 1 5 3 SW 0,0
22.01.2019 14:00:00 -1,5 -7,4 0 0 4 2 N 0,0
22.01.2019 13:00:00 -5,2 -6,0 0 0 4 2 N -
22.01.2019 12:00:00 -13,3 -14,7 0 0 4 2 N 0,0
22.01.2019 11:00:00 -13,9 -15,5 0 0 0 0 N 0,0
22.01.2019 10:00:00 -14,3 -15,9 2 1 4 2 E 0,0
22.01.2019 09:00:00 -14,7 -16,2 0 0 4 2 N 0,0
22.01.2019 08:00:00 -14,7 -16,4 2 1 5 3 NE 0,0
22.01.2019 07:00:00 -14,5 -16,0 0 0 4 2 N -
22.01.2019 06:00:00 -14,1 -15,7 2 1 5 3 NE 0,0
22.01.2019 05:00:00 -13,9 -15,5 0 0 2 1 N 0,0
22.01.2019 04:00:00 -13,3 -14,7 0 0 4 2 N 0,0
22.01.2019 03:00:00 -12,9 -14,2 0 0 5 3 N 0,0
22.01.2019 02:00:00 -12,6 -14,0 0 0 5 3 N 0,0
22.01.2019 01:00:00 -11,9 -13,2 2 1 4 2 N -
22.01.2019 00:00:00 -11,3 -12,6 0 0 4 2 N 0,0
21.01.2019 23:00:00 -10,7 -11,9 0 0 4 2 N 0,0
21.01.2019 22:00:00 -10,0 -11,1 0 0 4 2 N 0,0
21.01.2019 21:00:00 -9,2 -10,3 0 0 4 2 N 0,0
21.01.2019 20:00:00 -8,3 -9,2 0 0 4 2 N 0,0
21.01.2019 19:00:00 -7,0 -7,9 0 0 2 1 N -
21.01.2019 18:00:00 -5,5 -6,6 0 0 2 1 N 0,0
21.01.2019 17:00:00 -3,2 -5,7 0 0 8 4 N 0,0
21.01.2019 16:00:00 0,6 -6,5 4 2 8 4 S 0,0
21.01.2019 15:00:00 1,3 -8,3 2 1 8 4 WSW 0,0
21.01.2019 14:00:00 -0,2 -4,1 0 0 4 2 N 0,0
21.01.2019 13:00:00 -2,9 -3,3 0 0 2 1 N -
21.01.2019 12:00:00 -10,1 -11,3 0 0 4 2 N 0,0
21.01.2019 11:00:00 -10,4 -11,6 0 0 4 2 N 0,0
21.01.2019 10:00:00 -11,1 -12,3 0 0 4 2 N 0,0
21.01.2019 09:00:00 -11,6 -12,8 0 0 2 1 N 0,0
21.01.2019 08:00:00 -11,6 -12,9 0 0 2 1 N 0,0
21.01.2019 07:00:00 -11,2 -12,5 0 0 4 2 N -
21.01.2019 06:00:00 -10,6 -11,9 0 0 2 1 N 0,0
21.01.2019 05:00:00 -9,8 -11,0 0 0 2 1 N 0,0
21.01.2019 04:00:00 -8,9 -10,0 0 0 2 1 N 0,0
21.01.2019 03:00:00 -8,1 -9,2 0 0 4 2 N 0,0
21.01.2019 02:00:00 -7,2 -8,1 0 0 4 2 N 0,0
21.01.2019 01:00:00 -5,6 -6,4 0 0 4 2 N -
21.01.2019 00:00:00 -4,5 -5,0 0 0 2 1 N 0,0
20.01.2019 23:00:00 -4,1 -4,6 0 0 0 0 N 0,0
20.01.2019 22:00:00 -4,1 -4,6 0 0 2 1 N 0,0
20.01.2019 21:00:00 -3,5 -4,0 0 0 2 1 N 0,0
20.01.2019 20:00:00 -2,9 -3,4 0 0 2 1 N 0,0
20.01.2019 19:00:00 -2,2 -2,8 0 0 2 1 N -
20.01.2019 18:00:00 -1,5 -2,3 0 0 2 1 N 0,0
20.01.2019 17:00:00 -0,4 -1,4 0 0 2 1 N 0,0
20.01.2019 16:00:00 0,7 -0,6 0 0 0 0 N 0,0
20.01.2019 15:00:00 1,6 -0,3 0 0 4 2 N 0,0
20.01.2019 14:00:00 1,8 -1,3 0 0 4 2 N 0,0
20.01.2019 13:00:00 1,3 0,1 0 0 4 2 N -
20.01.2019 12:00:00 -1,8 -2,6 0 0 4 2 N 0,0
20.01.2019 11:00:00 -4,0 -4,5 0 0 4 2 N 0,0
20.01.2019 10:00:00 -6,9 -7,7 0 0 5 3 N 0,0
20.01.2019 09:00:00 -9,3 -10,4 0 0 2 1 N 0,0
20.01.2019 08:00:00 -10,5 -11,5 0 0 4 2 N 0,0
20.01.2019 07:00:00 -12,5 -13,8 0 0 4 2 N -
20.01.2019 06:00:00 -13,0 -14,4 0 0 4 2 N 0,0
20.01.2019 05:00:00 -12,6 -14,0 0 0 2 1 N 0,0
20.01.2019 04:00:00 -12,4 -13,7 0 0 2 1 N 0,0
20.01.2019 03:00:00 -12,2 -13,5 0 0 2 1 N 0,0
20.01.2019 02:00:00 -11,9 -13,2 0 0 4 2 N 0,0
20.01.2019 01:00:00 -11,3 -12,5 0 0 4 2 N -
20.01.2019 00:00:00 -10,7 -11,9 2 1 4 2 ENE 0,0
19.01.2019 23:00:00 -10,2 -11,3 0 0 4 2 N 0,0
19.01.2019 22:00:00 -9,5 -10,6 0 0 4 2 N 0,0
19.01.2019 21:00:00 -8,7 -9,6 0 0 4 2 N 0,0
19.01.2019 20:00:00 -8,3 -9,2 0 0 4 2 N 0,0
19.01.2019 19:00:00 -7,3 -8,2 0 0 4 2 N -
19.01.2019 18:00:00 -5,8 -6,9 0 0 2 1 N 0,0
19.01.2019 17:00:00 -3,9 -5,4 0 0 4 2 N 0,0
19.01.2019 16:00:00 -1,6 -3,8 0 0 4 2 N 0,0
19.01.2019 15:00:00 0,1 -4,0 0 0 4 2 N 0,0
19.01.2019 14:00:00 -0,3 -1,9 0 0 4 2 N 0,0
19.01.2019 13:00:00 -3,8 -4,3 0 0 4 2 N -
19.01.2019 12:00:00 -10,8 -12,0 0 0 4 2 N 0,0
19.01.2019 11:00:00 -11,4 -12,7 0 0 4 2 N 0,0
19.01.2019 10:00:00 -11,8 -13,1 0 0 4 2 N 0,0
19.01.2019 09:00:00 -12,1 -13,4 0 0 4 2 N 0,0
19.01.2019 08:00:00 -11,6 -12,9 0 0 4 2 N 0,0
19.01.2019 07:00:00 -10,7 -11,9 2 1 4 2 NE -
19.01.2019 06:00:00 -11,0 -12,2 0 0 5 3 N 0,0
19.01.2019 05:00:00 -11,0 -12,2 2 1 4 2 NE 0,0
19.01.2019 04:00:00 -10,7 -12,0 0 0 4 2 N 0,0
19.01.2019 03:00:00 -9,8 -11,0 0 0 5 3 N 0,0
19.01.2019 02:00:00 -9,5 -10,6 0 0 4 2 N 0,0
19.01.2019 01:00:00 -9,2 -10,3 0 0 4 2 N -
19.01.2019 00:00:00 -8,4 -9,5 0 0 4 2 N 0,0
18.01.2019 23:00:00 -7,5 -8,3 0 0 4 2 N 0,0
18.01.2019 22:00:00 -7,1 -8,0 0 0 5 3 N 0,0
18.01.2019 21:00:00 -6,1 -7,2 0 0 8 4 N 0,0
18.01.2019 20:00:00 -4,2 -4,9 2 1 8 4 NE 0,0
18.01.2019 19:00:00 -4,2 -5,0 0 0 2 1 N -
18.01.2019 18:00:00 -3,3 -4,3 0 0 5 3 N 0,0
18.01.2019 17:00:00 -2,3 -3,9 2 1 11 6 S 0,0
18.01.2019 16:00:00 -1,3 -4,1 4 2 15 8 SW 0,0
18.01.2019 15:00:00 0,2 -2,8 0 0 4 2 N 0,0
18.01.2019 14:00:00 -0,2 -1,8 0 0 5 3 N 0,0
18.01.2019 13:00:00 -1,4 -2,0 0 0 4 2 N -
18.01.2019 12:00:00 -6,6 -7,4 0 0 4 2 N 0,0
18.01.2019 11:00:00 -7,7 -8,6 0 0 4 2 N 0,0
18.01.2019 10:00:00 -7,7 -8,8 0 0 4 2 N 0,0
18.01.2019 09:00:00 -6,2 -6,9 0 0 4 2 N 0,0
18.01.2019 08:00:00 -6,3 -7,1 0 0 4 2 N 0,0
18.01.2019 07:00:00 -5,3 -6,1 0 0 2 1 N -
18.01.2019 06:00:00 -4,1 -4,6 0 0 5 3 N 0,0
18.01.2019 05:00:00 -3,9 -4,4 4 2 8 4 NNE 0,0
18.01.2019 04:00:00 -4,2 -4,7 0 0 4 2 N 0,0
18.01.2019 03:00:00 -3,5 -4,0 0 0 2 1 N 0,0
18.01.2019 02:00:00 -2,9 -3,3 0 0 5 3 N 0,0
18.01.2019 01:00:00 -2,8 -3,2 0 0 4 2 N -
18.01.2019 00:00:00 -1,8 -2,2 0 0 5 3 N 0,0
17.01.2019 23:00:00 -1,7 -2,1 0 0 2 1 N 0,0
17.01.2019 22:00:00 -1,7 -2,1 0 0 11 6 N 0,0
17.01.2019 21:00:00 -1,3 -1,7 2 1 8 4 WSW 0,0
17.01.2019 20:00:00 -1,3 -1,7 0 0 4 2 N 0,0
17.01.2019 19:00:00 -0,9 -1,5 0 0 4 2 N -
17.01.2019 18:00:00 -0,3 -0,9 0 0 8 4 N 0,0
17.01.2019 17:00:00 -0,1 -0,9 2 1 21 11 NW 2,0
17.01.2019 16:00:00 0,4 0,0 8 4 22 12 SSW 1,0
17.01.2019 15:00:00 0,1 -0,2 0 0 2 1 N 0,2
17.01.2019 14:00:00 0,1 -0,2 0 0 4 2 N 0,2
17.01.2019 13:00:00 -0,5 -0,8 0 0 5 3 N -
17.01.2019 12:00:00 -1,0 -1,3 0 0 5 3 N 0,0
17.01.2019 11:00:00 -1,5 -1,8 4 2 8 4 NNW 0,0
17.01.2019 10:00:00 -3,0 -3,4 4 2 8 4 E 0,0
17.01.2019 09:00:00 -3,9 -4,4 2 1 8 4 N 0,0
17.01.2019 08:00:00 -4,5 -5,0 0 0 13 7 N 0,0
17.01.2019 07:00:00 -5,4 -6,1 2 1 8 4 NW -
17.01.2019 06:00:00 -6,9 -7,6 0 0 5 3 N 0,0
17.01.2019 05:00:00 -8,0 -8,8 0 0 4 2 N 0,0
17.01.2019 04:00:00 -8,6 -9,7 0 0 4 2 N 0,0
17.01.2019 03:00:00 -8,2 -9,3 0 0 5 3 N 0,0

tt = temperature
td = dewpoint
ff = wind speed
fx = gusts
dd = wind direction
rr = precipitation

Next stations